Time;durP1;ratioP1;P1;durP2;ratioP2;P2;SDS_P1;SDS_P2;PMS_P1;PMS_P2;Temp;Humidity;BMP_temperature;BMP_pressure;BME280_temperature;BME280_humidity;BME280_pressure;Samples;Min_cycle;Max_cycle;Signal;HPM_P1;HPM_P2
2023/10/27 00:00:00;;;;;;;20.05;8.50;;;;;;;;;;486803;28;1237;-71
2023/10/27 00:00:16;;;;;;;18.97;7.43;;;;;;;;;;486945;28;1194;-71
2023/10/27 00:00:31;;;;;;;17.33;6.13;;;;;;;;;;487587;28;1435;-71
2023/10/27 00:00:47;;;;;;;14.77;5.27;;;;;;;;;;487584;28;1013;-71
2023/10/27 00:01:03;;;;;;;11.90;5.00;;;;;;;;;;488386;28;1419;-71
2023/10/27 00:01:18;;;;;;;12.88;4.97;;;;;;;;;;488127;28;1052;-71
2023/10/27 00:01:34;;;;;;;11.40;4.53;;;;;;;;;;486006;28;1013;-71
2023/10/27 00:01:49;;;;;;;9.57;4.20;;;;;;;;;;483010;28;946;-71
2023/10/27 00:02:05;;;;;;;10.43;4.13;;;;;;;;;;486036;28;1103;-71
2023/10/27 00:02:20;;;;;;;11.80;4.07;;;;;;;;;;488881;28;1284;-71
2023/10/27 00:02:38;;;;;;;12.43;4.00;;;;;;;;;;488132;28;1203;-71
2023/10/27 00:02:54;;;;;;;10.27;3.88;;;;;;;;;;487739;28;1051;-71
2023/10/27 00:03:09;;;;;;;11.13;3.80;;;;;;;;;;488929;28;1182;-71
2023/10/27 00:03:25;;;;;;;11.43;3.80;;;;;;;;;;488601;28;1253;-71
2023/10/27 00:03:40;;;;;;;10.35;3.97;;;;;;;;;;488634;28;1199;-71
2023/10/27 00:03:56;;;;;;;10.30;3.80;;;;;;;;;;486938;28;1536;-71
2023/10/27 00:04:11;;;;;;;9.60;3.53;;;;;;;;;;488069;28;1119;-71
2023/10/27 00:04:26;;;;;;;8.87;3.40;;;;;;;;;;487362;28;1304;-71
2023/10/27 00:04:42;;;;;;;9.23;3.55;;;;;;;;;;489111;28;1259;-71
2023/10/27 00:04:57;;;;;;;10.20;3.57;;;;;;;;;;486217;28;1011;-71
2023/10/27 00:05:13;;;;;;;8.83;3.33;;;;;;;;;;488561;28;1199;-71
2023/10/27 00:05:28;;;;;;;7.72;3.22;;;;;;;;;;485881;28;1638;-71
2023/10/27 00:05:44;;;;;;;7.70;3.17;;;;;;;;;;485738;28;1092;-71
2023/10/27 00:05:59;;;;;;;8.48;3.30;;;;;;;;;;484624;28;924;-71
2023/10/27 00:06:14;;;;;;;9.70;3.63;;;;;;;;;;485335;28;906;-71
2023/10/27 00:06:32;;;;;;;10.98;3.78;;;;;;;;;;487158;28;985;-71
2023/10/27 00:06:48;;;;;;;10.25;3.35;;;;;;;;;;486467;28;1163;-71
2023/10/27 00:07:03;;;;;;;7.73;2.87;;;;;;;;;;487828;28;1050;-71
2023/10/27 00:07:19;;;;;;;8.00;2.90;;;;;;;;;;489182;28;1132;-69
2023/10/27 00:07:34;;;;;;;7.83;3.00;;;;;;;;;;489480;28;912;-68
2023/10/27 00:07:50;;;;;;;7.63;3.03;;;;;;;;;;488930;28;928;-69
2023/10/27 00:08:05;;;;;;;10.07;3.30;;;;;;;;;;487623;28;1021;-68
2023/10/27 00:08:21;;;;;;;11.20;3.20;;;;;;;;;;489118;28;1011;-70
2023/10/27 00:08:36;;;;;;;9.82;3.13;;;;;;;;;;488992;28;1205;-68
2023/10/27 00:08:52;;;;;;;9.10;3.00;;;;;;;;;;488678;28;1204;-69
2023/10/27 00:09:07;;;;;;;8.63;2.83;;;;;;;;;;487036;28;1045;-68
2023/10/27 00:09:23;;;;;;;9.63;3.20;;;;;;;;;;486577;28;2027;-68
2023/10/27 00:09:39;;;;;;;10.63;3.30;;;;;;;;;;486684;28;1152;-72
2023/10/27 00:09:54;;;;;;;12.23;3.42;;;;;;;;;;486099;28;1007;-68
2023/10/27 00:10:10;;;;;;;13.25;3.97;;;;;;;;;;485681;28;1251;-68
2023/10/27 00:10:25;;;;;;;12.97;4.10;;;;;;;;;;484663;28;952;-70
2023/10/27 00:10:41;;;;;;;10.73;3.65;;;;;;;;;;487395;28;1219;-69
2023/10/27 00:10:56;;;;;;;9.87;3.30;;;;;;;;;;488377;28;1080;-68
2023/10/27 00:11:12;;;;;;;9.93;3.40;;;;;;;;;;485881;28;1252;-69
2023/10/27 00:11:27;;;;;;;10.43;4.03;;;;;;;;;;486117;28;1076;-68
2023/10/27 00:11:42;;;;;;;11.80;4.20;;;;;;;;;;485671;28;958;-69
2023/10/27 00:11:58;;;;;;;9.23;3.67;;;;;;;;;;486230;28;1267;-68
2023/10/27 00:12:13;;;;;;;8.37;3.60;;;;;;;;;;486635;28;1073;-68
2023/10/27 00:12:29;;;;;;;9.25;3.60;;;;;;;;;;486991;28;1042;-69
2023/10/27 00:12:44;;;;;;;9.33;3.80;;;;;;;;;;486391;28;1127;-68
2023/10/27 00:13:00;;;;;;;9.35;3.63;;;;;;;;;;485713;28;1207;-68
2023/10/27 00:13:15;;;;;;;10.00;3.57;;;;;;;;;;485699;28;1401;-70
2023/10/27 00:13:31;;;;;;;10.20;3.87;;;;;;;;;;486883;28;1208;-69
2023/10/27 00:13:46;;;;;;;10.57;3.80;;;;;;;;;;486227;28;993;-68
2023/10/27 00:14:03;;;;;;;10.60;3.97;;;;;;;;;;486362;28;1013;-68
2023/10/27 00:14:18;;;;;;;12.20;4.47;;;;;;;;;;485881;28;1313;-68
2023/10/27 00:14:34;;;;;;;11.60;4.32;;;;;;;;;;484827;28;1230;-68
2023/10/27 00:14:49;;;;;;;11.80;4.13;;;;;;;;;;484682;28;956;-69
2023/10/27 00:15:06;;;;;;;12.98;4.15;;;;;;;;;;485127;28;1156;-68
2023/10/27 00:15:22;;;;;;;9.23;3.90;;;;;;;;;;487554;28;1148;-68
2023/10/27 00:15:37;;;;;;;9.52;3.95;;;;;;;;;;488372;28;953;-69
2023/10/27 00:15:53;;;;;;;13.65;4.63;;;;;;;;;;489048;28;1049;-68
2023/10/27 00:16:11;;;;;;;12.27;4.60;;;;;;;;;;486874;28;1170;-68
2023/10/27 00:16:27;;;;;;;10.40;4.75;;;;;;;;;;487186;28;1103;-68
2023/10/27 00:16:42;;;;;;;11.77;4.67;;;;;;;;;;488628;28;1012;-69
2023/10/27 00:16:58;;;;;;;10.13;3.93;;;;;;;;;;488924;28;1047;-71
2023/10/27 00:17:13;;;;;;;8.07;3.67;;;;;;;;;;487649;28;1200;-71
2023/10/27 00:17:29;;;;;;;8.32;3.40;;;;;;;;;;488263;28;1138;-71
2023/10/27 00:17:44;;;;;;;8.43;3.17;;;;;;;;;;487156;28;1227;-71
2023/10/27 00:18:00;;;;;;;9.43;3.20;;;;;;;;;;487338;28;1239;-71
2023/10/27 00:18:15;;;;;;;10.47;3.40;;;;;;;;;;487663;28;1103;-71
2023/10/27 00:18:31;;;;;;;12.68;4.47;;;;;;;;;;487574;28;1199;-71
2023/10/27 00:18:46;;;;;;;13.93;5.60;;;;;;;;;;487286;28;1069;-71
2023/10/27 00:19:01;;;;;;;13.63;5.43;;;;;;;;;;486179;28;1136;-71
2023/10/27 00:19:17;;;;;;;13.57;5.27;;;;;;;;;;486231;28;1290;-71
2023/10/27 00:19:32;;;;;;;14.63;5.80;;;;;;;;;;486298;28;1268;-71
2023/10/27 00:19:48;;;;;;;14.90;5.85;;;;;;;;;;484061;28;1212;-71
2023/10/27 00:20:05;;;;;;;14.77;5.37;;;;;;;;;;484776;28;1164;-71
2023/10/27 00:20:21;;;;;;;10.98;4.68;;;;;;;;;;481474;28;1247;-71
2023/10/27 00:20:36;;;;;;;9.30;4.50;;;;;;;;;;483022;28;1191;-71
2023/10/27 00:20:52;;;;;;;10.25;4.45;;;;;;;;;;482573;28;1272;-71
2023/10/27 00:21:07;;;;;;;11.30;4.63;;;;;;;;;;486364;28;1718;-71
2023/10/27 00:21:22;;;;;;;11.77;4.70;;;;;;;;;;484774;28;1120;-71
2023/10/27 00:21:38;;;;;;;9.55;4.22;;;;;;;;;;486319;28;1058;-71
2023/10/27 00:21:53;;;;;;;9.93;4.33;;;;;;;;;;485875;28;1356;-71
2023/10/27 00:22:09;;;;;;;10.60;4.38;;;;;;;;;;485816;28;1286;-71
2023/10/27 00:22:25;;;;;;;9.57;4.33;;;;;;;;;;484595;28;1503;-71
2023/10/27 00:22:40;;;;;;;10.88;4.45;;;;;;;;;;484203;28;1079;-71
2023/10/27 00:22:56;;;;;;;10.93;3.90;;;;;;;;;;485168;28;1060;-71
2023/10/27 00:23:11;;;;;;;9.07;3.57;;;;;;;;;;487013;28;1006;-71
2023/10/27 00:23:27;;;;;;;9.85;3.92;;;;;;;;;;486849;28;1034;-71
2023/10/27 00:23:42;;;;;;;11.10;4.37;;;;;;;;;;487178;28;1054;-71
2023/10/27 00:23:57;;;;;;;11.55;4.65;;;;;;;;;;486860;28;1368;-71
2023/10/27 00:24:13;;;;;;;12.97;4.90;;;;;;;;;;488194;28;1130;-71
2023/10/27 00:24:28;;;;;;;13.20;5.23;;;;;;;;;;486498;28;1111;-71
2023/10/27 00:24:44;;;;;;;14.77;5.80;;;;;;;;;;488634;28;1208;-71
2023/10/27 00:24:59;;;;;;;19.57;6.87;;;;;;;;;;487499;28;862;-71
2023/10/27 00:25:15;;;;;;;22.67;8.15;;;;;;;;;;488928;28;1136;-71
2023/10/27 00:25:30;;;;;;;23.03;9.40;;;;;;;;;;488132;28;1004;-71
2023/10/27 00:25:46;;;;;;;30.95;12.52;;;;;;;;;;489144;28;961;-71
2023/10/27 00:26:02;;;;;;;36.10;13.73;;;;;;;;;;488324;28;1269;-71
2023/10/27 00:26:18;;;;;;;24.88;9.35;;;;;;;;;;488893;28;1119;-71
2023/10/27 00:26:33;;;;;;;19.43;6.43;;;;;;;;;;489344;28;971;-71
2023/10/27 00:26:48;;;;;;;16.40;5.38;;;;;;;;;;488708;28;969;-71
2023/10/27 00:27:04;;;;;;;11.23;4.47;;;;;;;;;;489481;28;933;-71
2023/10/27 00:27:20;;;;;;;12.57;4.28;;;;;;;;;;488739;28;1207;-71
2023/10/27 00:27:35;;;;;;;13.60;4.83;;;;;;;;;;489083;28;1277;-71
2023/10/27 00:27:51;;;;;;;15.95;5.85;;;;;;;;;;488899;28;931;-72
2023/10/27 00:28:06;;;;;;;18.00;7.10;;;;;;;;;;488450;28;961;-71
2023/10/27 00:28:22;;;;;;;19.50;8.02;;;;;;;;;;487608;28;998;-71
2023/10/27 00:28:39;;;;;;;21.80;8.70;;;;;;;;;;488581;28;941;-71
2023/10/27 00:28:55;;;;;;;21.25;7.85;;;;;;;;;;488288;28;1187;-71
2023/10/27 00:29:10;;;;;;;17.77;6.60;;;;;;;;;;488183;28;1214;-71
2023/10/27 00:29:25;;;;;;;14.30;5.90;;;;;;;;;;488597;28;2017;-71
2023/10/27 00:29:41;;;;;;;12.10;5.27;;;;;;;;;;488686;28;1006;-71
2023/10/27 00:29:56;;;;;;;12.85;4.88;;;;;;;;;;487361;28;1356;-71
2023/10/27 00:30:12;;;;;;;14.30;4.90;;;;;;;;;;487697;28;1045;-71
2023/10/27 00:30:27;;;;;;;14.07;4.90;;;;;;;;;;487663;28;1293;-71
2023/10/27 00:30:43;;;;;;;12.33;4.37;;;;;;;;;;487947;28;1127;-71
2023/10/27 00:31:02;;;;;;;10.77;4.10;;;;;;;;;;487427;28;1285;-71
2023/10/27 00:31:17;;;;;;;11.52;4.40;;;;;;;;;;487521;28;1503;-71
2023/10/27 00:31:33;;;;;;;12.25;4.03;;;;;;;;;;487571;28;1379;-71
2023/10/27 00:31:48;;;;;;;13.23;3.90;;;;;;;;;;487499;28;1176;-71
2023/10/27 00:32:03;;;;;;;11.93;3.80;;;;;;;;;;488214;28;925;-71
2023/10/27 00:32:19;;;;;;;10.63;3.70;;;;;;;;;;488932;28;1173;-71
2023/10/27 00:32:37;;;;;;;11.85;4.10;;;;;;;;;;487881;28;1265;-71
2023/10/27 00:32:53;;;;;;;13.05;4.15;;;;;;;;;;488252;28;1037;-71
2023/10/27 00:33:08;;;;;;;11.90;3.70;;;;;;;;;;488604;28;1175;-71
2023/10/27 00:33:24;;;;;;;11.35;3.70;;;;;;;;;;488716;28;1044;-72
2023/10/27 00:33:39;;;;;;;10.63;3.70;;;;;;;;;;489820;28;1159;-71
2023/10/27 00:33:54;;;;;;;9.88;3.63;;;;;;;;;;488818;28;1238;-71
2023/10/27 00:34:10;;;;;;;9.20;3.40;;;;;;;;;;488284;28;1211;-71
2023/10/27 00:34:25;;;;;;;11.30;3.75;;;;;;;;;;488662;28;1187;-71
2023/10/27 00:34:41;;;;;;;13.43;4.47;;;;;;;;;;488941;28;1518;-71
2023/10/27 00:34:56;;;;;;;12.73;4.53;;;;;;;;;;488928;28;983;-71
2023/10/27 00:35:12;;;;;;;12.00;4.40;;;;;;;;;;489802;28;1040;-71
2023/10/27 00:35:27;;;;;;;12.50;4.20;;;;;;;;;;488845;28;1206;-71
2023/10/27 00:35:42;;;;;;;13.07;4.35;;;;;;;;;;486449;28;1214;-71
2023/10/27 00:35:58;;;;;;;14.43;4.80;;;;;;;;;;489212;28;1365;-71
2023/10/27 00:36:13;;;;;;;12.65;4.70;;;;;;;;;;488779;28;1162;-71
2023/10/27 00:36:29;;;;;;;13.17;5.33;;;;;;;;;;488228;28;1191;-71
2023/10/27 00:36:45;;;;;;;16.65;5.85;;;;;;;;;;487934;28;1226;-71
2023/10/27 00:37:00;;;;;;;16.80;5.83;;;;;;;;;;488572;28;1258;-71
2023/10/27 00:37:15;;;;;;;16.10;6.10;;;;;;;;;;488409;28;1219;-71
2023/10/27 00:37:34;;;;;;;16.77;5.67;;;;;;;;;;488320;28;1250;-71
2023/10/27 00:37:50;;;;;;;15.30;5.40;;;;;;;;;;484138;28;1208;-71
2023/10/27 00:38:05;;;;;;;16.75;5.80;;;;;;;;;;485418;28;1215;-71
2023/10/27 00:38:21;;;;;;;16.50;5.60;;;;;;;;;;485895;28;1159;-71
2023/10/27 00:38:36;;;;;;;13.85;5.00;;;;;;;;;;484579;28;1207;-71
2023/10/27 00:38:52;;;;;;;13.30;4.97;;;;;;;;;;486216;28;1512;-71
2023/10/27 00:39:07;;;;;;;11.85;4.80;;;;;;;;;;486421;28;1178;-71
2023/10/27 00:39:22;;;;;;;13.93;4.90;;;;;;;;;;486902;28;1271;-71
2023/10/27 00:39:41;;;;;;;15.20;5.30;;;;;;;;;;483899;28;1590;-71
2023/10/27 00:39:56;;;;;;;12.93;5.07;;;;;;;;;;488151;28;1233;-71
2023/10/27 00:40:12;;;;;;;12.95;4.93;;;;;;;;;;488800;28;1197;-71
2023/10/27 00:40:28;;;;;;;12.20;4.82;;;;;;;;;;488365;28;1667;-71
2023/10/27 00:40:43;;;;;;;13.18;4.65;;;;;;;;;;488651;28;1052;-71
2023/10/27 00:40:59;;;;;;;14.57;5.20;;;;;;;;;;488815;28;1295;-71
2023/10/27 00:41:14;;;;;;;16.25;5.85;;;;;;;;;;487906;28;1302;-71
2023/10/27 00:41:30;;;;;;;16.87;5.60;;;;;;;;;;486661;28;1471;-71
2023/10/27 00:41:46;;;;;;;16.10;5.50;;;;;;;;;;487206;28;1266;-71
2023/10/27 00:42:01;;;;;;;13.90;5.10;;;;;;;;;;487240;28;1274;-71
2023/10/27 00:42:16;;;;;;;11.67;4.67;;;;;;;;;;487525;28;1107;-71
2023/10/27 00:42:32;;;;;;;13.50;4.63;;;;;;;;;;487629;28;1203;-71
2023/10/27 00:42:47;;;;;;;15.05;5.03;;;;;;;;;;486785;28;1194;-71
2023/10/27 00:43:04;;;;;;;12.27;4.90;;;;;;;;;;488146;28;1264;-71
2023/10/27 00:43:19;;;;;;;11.07;4.57;;;;;;;;;;488806;28;1278;-71
2023/10/27 00:43:35;;;;;;;11.40;4.40;;;;;;;;;;486916;28;1041;-71
2023/10/27 00:43:50;;;;;;;10.85;4.60;;;;;;;;;;487717;28;1211;-71
2023/10/27 00:44:06;;;;;;;11.57;4.80;;;;;;;;;;487798;28;893;-71
2023/10/27 00:44:21;;;;;;;12.07;4.80;;;;;;;;;;488608;28;1251;-71
2023/10/27 00:44:36;;;;;;;13.88;4.90;;;;;;;;;;488360;28;1293;-71
2023/10/27 00:44:52;;;;;;;13.97;5.00;;;;;;;;;;487728;28;1179;-71
2023/10/27 00:45:07;;;;;;;12.98;4.97;;;;;;;;;;488343;28;1548;-71
2023/10/27 00:45:24;;;;;;;12.60;4.50;;;;;;;;;;487201;28;1192;-71
2023/10/27 00:45:40;;;;;;;10.60;4.35;;;;;;;;;;486329;28;1271;-71
2023/10/27 00:45:55;;;;;;;12.88;4.72;;;;;;;;;;486000;28;1299;-71
2023/10/27 00:46:11;;;;;;;14.83;4.77;;;;;;;;;;485736;28;1207;-71
2023/10/27 00:46:26;;;;;;;13.50;4.97;;;;;;;;;;487023;28;1247;-71
2023/10/27 00:46:44;;;;;;;12.83;4.97;;;;;;;;;;488020;28;968;-71
2023/10/27 00:46:59;;;;;;;14.13;4.80;;;;;;;;;;487565;28;1480;-71
2023/10/27 00:47:15;;;;;;;15.55;5.25;;;;;;;;;;487610;28;1370;-71
2023/10/27 00:47:30;;;;;;;17.77;5.75;;;;;;;;;;488789;28;1469;-71
2023/10/27 00:47:46;;;;;;;17.97;6.03;;;;;;;;;;487604;28;1347;-71
2023/10/27 00:48:02;;;;;;;16.63;5.75;;;;;;;;;;488404;28;1251;-71
2023/10/27 00:48:19;;;;;;;16.48;5.25;;;;;;;;;;488778;28;1089;-71
2023/10/27 00:48:35;;;;;;;14.05;5.22;;;;;;;;;;487709;28;1302;-71
2023/10/27 00:48:51;;;;;;;14.18;5.22;;;;;;;;;;485043;28;1394;-71
2023/10/27 00:49:07;;;;;;;16.00;5.20;;;;;;;;;;486511;28;1271;-71
2023/10/27 00:49:22;;;;;;;13.43;4.80;;;;;;;;;;487040;28;1967;-71
2023/10/27 00:49:38;;;;;;;13.90;5.00;;;;;;;;;;488422;28;1310;-71
2023/10/27 00:49:54;;;;;;;13.70;4.82;;;;;;;;;;485214;28;1505;-71
2023/10/27 00:50:10;;;;;;;10.90;4.47;;;;;;;;;;486918;28;1060;-71
2023/10/27 00:50:26;;;;;;;12.18;4.75;;;;;;;;;;486631;28;1042;-71
2023/10/27 00:50:42;;;;;;;14.07;5.05;;;;;;;;;;487679;28;1517;-71
2023/10/27 00:50:58;;;;;;;14.85;5.72;;;;;;;;;;486506;28;1273;-71
2023/10/27 00:51:13;;;;;;;14.18;5.85;;;;;;;;;;488844;28;1175;-71
2023/10/27 00:51:29;;;;;;;12.67;5.30;;;;;;;;;;488561;28;1000;-70
2023/10/27 00:51:46;;;;;;;11.73;5.00;;;;;;;;;;486722;28;1258;-71
2023/10/27 00:52:02;;;;;;;11.40;5.07;;;;;;;;;;485181;28;989;-71
2023/10/27 00:52:19;;;;;;;12.52;4.97;;;;;;;;;;485915;28;1030;-71
2023/10/27 00:52:35;;;;;;;12.10;4.47;;;;;;;;;;486185;28;1093;-71
2023/10/27 00:52:52;;;;;;;11.68;4.20;;;;;;;;;;487413;28;1032;-71
2023/10/27 00:53:07;;;;;;;10.95;3.90;;;;;;;;;;488564;28;1210;-71
2023/10/27 00:53:23;;;;;;;11.90;4.00;;;;;;;;;;487968;28;1206;-71
2023/10/27 00:53:39;;;;;;;11.27;4.07;;;;;;;;;;488588;28;1229;-71
2023/10/27 00:53:55;;;;;;;10.07;3.78;;;;;;;;;;488350;28;1580;-71
2023/10/27 00:54:10;;;;;;;10.85;3.53;;;;;;;;;;488909;28;1110;-71
2023/10/27 00:54:27;;;;;;;11.98;3.55;;;;;;;;;;489004;28;1280;-71
2023/10/27 00:54:46;;;;;;;10.45;3.58;;;;;;;;;;488099;28;1139;-71
2023/10/27 00:55:05;;;;;;;8.45;3.42;;;;;;;;;;487993;28;1181;-71
2023/10/27 00:55:21;;;;;;;8.80;3.28;;;;;;;;;;488472;28;1207;-71
2023/10/27 00:55:36;;;;;;;9.15;3.33;;;;;;;;;;488990;28;1095;-71
2023/10/27 00:55:52;;;;;;;9.07;3.53;;;;;;;;;;489194;28;1176;-71
2023/10/27 00:56:07;;;;;;;10.48;3.78;;;;;;;;;;488518;28;1191;-71
2023/10/27 00:56:24;;;;;;;10.50;3.70;;;;;;;;;;487794;28;1804;-71
2023/10/27 00:56:40;;;;;;;9.38;3.50;;;;;;;;;;489207;28;1143;-71
2023/10/27 00:56:56;;;;;;;10.52;3.50;;;;;;;;;;487980;28;1131;-71
2023/10/27 00:57:11;;;;;;;9.95;3.67;;;;;;;;;;486105;28;1290;-71
2023/10/27 00:57:28;;;;;;;8.98;3.63;;;;;;;;;;486827;28;1038;-71
2023/10/27 00:57:44;;;;;;;9.48;3.75;;;;;;;;;;487075;28;1153;-71
2023/10/27 00:57:59;;;;;;;10.73;4.10;;;;;;;;;;486771;28;948;-71
2023/10/27 00:58:15;;;;;;;12.70;4.17;;;;;;;;;;487180;28;1027;-72
2023/10/27 00:58:31;;;;;;;12.98;3.90;;;;;;;;;;486907;28;1068;-71
2023/10/27 00:58:47;;;;;;;11.77;3.78;;;;;;;;;;486423;28;915;-71
2023/10/27 00:59:03;;;;;;;11.48;3.90;;;;;;;;;;488606;28;961;-71
2023/10/27 00:59:18;;;;;;;11.50;3.92;;;;;;;;;;489188;28;1144;-71
2023/10/27 00:59:36;;;;;;;10.40;3.77;;;;;;;;;;488483;28;1021;-71
2023/10/27 00:59:52;;;;;;;11.93;3.33;;;;;;;;;;488805;28;1047;-71
2023/10/27 01:00:08;;;;;;;8.85;3.10;;;;;;;;;;488867;28;1135;-71
2023/10/27 01:00:23;;;;;;;9.70;3.33;;;;;;;;;;488704;28;1171;-71
2023/10/27 01:00:39;;;;;;;9.60;3.30;;;;;;;;;;488975;28;1126;-71
2023/10/27 01:00:56;;;;;;;10.17;3.53;;;;;;;;;;488721;28;964;-71
2023/10/27 01:01:15;;;;;;;12.05;4.45;;;;;;;;;;488826;28;1098;-71
2023/10/27 01:01:31;;;;;;;11.55;4.47;;;;;;;;;;489179;28;1043;-71
2023/10/27 01:01:46;;;;;;;8.75;3.72;;;;;;;;;;488161;28;1243;-71
2023/10/27 01:02:02;;;;;;;7.63;3.50;;;;;;;;;;488867;28;1045;-71
2023/10/27 01:02:18;;;;;;;8.63;3.80;;;;;;;;;;487611;28;1256;-71
2023/10/27 01:02:34;;;;;;;10.68;4.30;;;;;;;;;;488567;28;1125;-71
2023/10/27 01:02:49;;;;;;;10.77;4.60;;;;;;;;;;489164;28;1116;-71
2023/10/27 01:03:05;;;;;;;13.20;4.97;;;;;;;;;;488859;28;1211;-71
2023/10/27 01:03:20;;;;;;;14.83;5.07;;;;;;;;;;488696;28;1073;-71
2023/10/27 01:03:36;;;;;;;12.27;4.80;;;;;;;;;;487704;28;1174;-70
2023/10/27 01:03:51;;;;;;;13.73;5.40;;;;;;;;;;489079;28;1138;-71
2023/10/27 01:04:07;;;;;;;14.23;5.47;;;;;;;;;;487721;28;1068;-71
2023/10/27 01:04:22;;;;;;;12.73;5.03;;;;;;;;;;488075;28;1282;-71
2023/10/27 01:04:38;;;;;;;13.27;4.87;;;;;;;;;;488161;28;1052;-71
2023/10/27 01:04:53;;;;;;;12.93;4.57;;;;;;;;;;487803;28;1217;-71
2023/10/27 01:05:08;;;;;;;12.97;4.53;;;;;;;;;;487470;28;1115;-71
2023/10/27 01:05:24;;;;;;;13.02;4.40;;;;;;;;;;488084;28;1030;-71
2023/10/27 01:05:39;;;;;;;10.60;3.97;;;;;;;;;;488190;28;933;-71
2023/10/27 01:05:55;;;;;;;10.80;3.72;;;;;;;;;;488472;28;983;-71
2023/10/27 01:06:10;;;;;;;13.60;3.70;;;;;;;;;;488027;28;1200;-71
2023/10/27 01:06:26;;;;;;;11.88;3.60;;;;;;;;;;485230;28;1251;-71
2023/10/27 01:06:41;;;;;;;10.20;3.80;;;;;;;;;;485255;28;1133;-71
2023/10/27 01:06:57;;;;;;;10.83;4.03;;;;;;;;;;485916;28;964;-71
2023/10/27 01:07:13;;;;;;;10.48;3.90;;;;;;;;;;485522;28;1107;-71
2023/10/27 01:07:28;;;;;;;12.00;4.00;;;;;;;;;;485934;28;1116;-71
2023/10/27 01:07:44;;;;;;;12.50;4.10;;;;;;;;;;486789;28;1141;-71
2023/10/27 01:08:00;;;;;;;10.97;3.70;;;;;;;;;;486407;28;1282;-71
2023/10/27 01:08:15;;;;;;;9.13;3.33;;;;;;;;;;485808;28;988;-71
2023/10/27 01:08:31;;;;;;;9.07;3.30;;;;;;;;;;489321;28;993;-71
2023/10/27 01:08:46;;;;;;;8.43;3.40;;;;;;;;;;490251;28;1126;-71
2023/10/27 01:09:02;;;;;;;7.23;3.10;;;;;;;;;;490390;28;867;-71
2023/10/27 01:09:17;;;;;;;8.32;3.20;;;;;;;;;;488567;28;1382;-71
2023/10/27 01:09:33;;;;;;;10.02;3.50;;;;;;;;;;490716;28;1981;-71
2023/10/27 01:09:48;;;;;;;11.37;3.80;;;;;;;;;;486230;28;1156;-71
2023/10/27 01:10:04;;;;;;;11.18;4.20;;;;;;;;;;488627;28;1132;-71
2023/10/27 01:10:20;;;;;;;10.20;4.05;;;;;;;;;;487859;28;1179;-71
2023/10/27 01:10:35;;;;;;;8.73;3.40;;;;;;;;;;486086;28;1254;-71
2023/10/27 01:10:51;;;;;;;8.82;3.50;;;;;;;;;;485270;28;1024;-71
2023/10/27 01:11:07;;;;;;;9.03;3.67;;;;;;;;;;486964;28;1257;-71
2023/10/27 01:11:24;;;;;;;8.65;3.60;;;;;;;;;;485820;28;1092;-71
2023/10/27 01:11:40;;;;;;;8.68;3.50;;;;;;;;;;487237;28;1285;-71
2023/10/27 01:11:55;;;;;;;9.38;3.58;;;;;;;;;;488387;28;1632;-71
2023/10/27 01:12:11;;;;;;;10.07;3.70;;;;;;;;;;489081;28;1196;-70
2023/10/27 01:12:26;;;;;;;9.83;3.60;;;;;;;;;;488527;28;1151;-71
2023/10/27 01:12:46;;;;;;;8.60;3.50;;;;;;;;;;488643;28;1063;-71
2023/10/27 01:13:02;;;;;;;9.60;3.78;;;;;;;;;;486019;28;1495;-71
2023/10/27 01:13:17;;;;;;;8.07;3.50;;;;;;;;;;486297;28;929;-71
2023/10/27 01:13:33;;;;;;;8.40;3.20;;;;;;;;;;487865;28;1255;-71
2023/10/27 01:13:53;;;;;;;8.03;3.10;;;;;;;;;;487478;28;1104;-71
2023/10/27 01:14:08;;;;;;;6.07;3.00;;;;;;;;;;489107;28;1103;-71
2023/10/27 01:14:24;;;;;;;6.07;3.03;;;;;;;;;;488212;28;1401;-71
2023/10/27 01:14:39;;;;;;;7.77;2.93;;;;;;;;;;486710;28;1187;-71
2023/10/27 01:14:55;;;;;;;9.90;3.00;;;;;;;;;;486599;28;1126;-71
2023/10/27 01:15:10;;;;;;;8.13;2.90;;;;;;;;;;489086;28;937;-73
2023/10/27 01:15:26;;;;;;;6.95;2.83;;;;;;;;;;488401;28;1047;-73
2023/10/27 01:15:41;;;;;;;9.43;3.13;;;;;;;;;;488109;28;1115;-73
2023/10/27 01:15:57;;;;;;;10.80;3.42;;;;;;;;;;487349;28;1352;-71
2023/10/27 01:16:12;;;;;;;7.97;3.20;;;;;;;;;;487419;28;1053;-71
2023/10/27 01:16:27;;;;;;;7.10;3.03;;;;;;;;;;485886;28;1006;-71
2023/10/27 01:16:43;;;;;;;8.40;3.30;;;;;;;;;;487868;28;1138;-71
2023/10/27 01:16:58;;;;;;;8.03;3.10;;;;;;;;;;488098;28;1147;-71
2023/10/27 01:17:13;;;;;;;7.88;2.85;;;;;;;;;;488331;28;1206;-71
2023/10/27 01:17:29;;;;;;;7.93;2.90;;;;;;;;;;486551;28;922;-71
2023/10/27 01:17:45;;;;;;;7.40;2.97;;;;;;;;;;488843;28;1154;-71
2023/10/27 01:18:01;;;;;;;7.95;3.10;;;;;;;;;;488219;28;1378;-71
2023/10/27 01:18:16;;;;;;;7.57;2.97;;;;;;;;;;486022;28;1084;-71
2023/10/27 01:18:31;;;;;;;6.80;2.83;;;;;;;;;;488437;28;1023;-71
2023/10/27 01:18:47;;;;;;;7.17;3.03;;;;;;;;;;488720;28;1037;-71
2023/10/27 01:19:03;;;;;;;7.45;2.92;;;;;;;;;;488452;28;882;-71
2023/10/27 01:19:18;;;;;;;7.93;2.73;;;;;;;;;;488673;28;1186;-71
2023/10/27 01:19:36;;;;;;;7.10;2.83;;;;;;;;;;488919;28;918;-71
2023/10/27 01:19:51;;;;;;;8.43;3.00;;;;;;;;;;489118;28;1134;-71
2023/10/27 01:20:07;;;;;;;9.40;2.95;;;;;;;;;;488458;28;1041;-70
2023/10/27 01:20:22;;;;;;;9.55;2.97;;;;;;;;;;488681;28;980;-71
2023/10/27 01:20:38;;;;;;;9.03;2.97;;;;;;;;;;486854;28;1125;-71
2023/10/27 01:20:53;;;;;;;7.90;2.80;;;;;;;;;;486974;28;1244;-71
2023/10/27 01:21:08;;;;;;;8.43;2.85;;;;;;;;;;485156;28;1184;-71
2023/10/27 01:21:24;;;;;;;7.97;2.90;;;;;;;;;;483507;28;1178;-71
2023/10/27 01:21:39;;;;;;;9.98;3.08;;;;;;;;;;483476;28;1111;-71
2023/10/27 01:21:55;;;;;;;10.10;2.97;;;;;;;;;;485109;28;1125;-71
2023/10/27 01:22:15;;;;;;;6.32;2.78;;;;;;;;;;485031;28;973;-71
2023/10/27 01:22:31;;;;;;;8.63;2.65;;;;;;;;;;484099;28;1001;-71
2023/10/27 01:22:47;;;;;;;6.60;2.40;;;;;;;;;;485952;28;1096;-71
2023/10/27 01:23:04;;;;;;;6.30;2.50;;;;;;;;;;487513;28;1195;-71
2023/10/27 01:23:19;;;;;;;6.93;2.45;;;;;;;;;;488137;28;1359;-71
2023/10/27 01:23:35;;;;;;;5.45;2.38;;;;;;;;;;487948;28;1390;-71
2023/10/27 01:23:50;;;;;;;5.77;2.50;;;;;;;;;;487040;28;1339;-71
2023/10/27 01:24:07;;;;;;;6.00;2.58;;;;;;;;;;487533;28;1126;-71
2023/10/27 01:24:23;;;;;;;4.93;2.38;;;;;;;;;;487549;28;1113;-71
2023/10/27 01:24:39;;;;;;;5.13;2.30;;;;;;;;;;486278;28;1044;-71
2023/10/27 01:24:55;;;;;;;6.53;2.43;;;;;;;;;;487184;28;1083;-71
2023/10/27 01:25:10;;;;;;;7.30;2.63;;;;;;;;;;488083;28;989;-71
2023/10/27 01:25:26;;;;;;;6.87;2.60;;;;;;;;;;488338;28;946;-71
2023/10/27 01:25:41;;;;;;;8.47;2.80;;;;;;;;;;488259;28;998;-71
2023/10/27 01:25:57;;;;;;;7.97;2.72;;;;;;;;;;489101;28;1225;-71
2023/10/27 01:26:12;;;;;;;5.73;2.40;;;;;;;;;;488852;28;1258;-71
2023/10/27 01:26:27;;;;;;;6.60;2.70;;;;;;;;;;488147;28;1084;-71
2023/10/27 01:26:43;;;;;;;8.13;3.00;;;;;;;;;;488236;28;1237;-71
2023/10/27 01:26:59;;;;;;;8.73;3.03;;;;;;;;;;486327;28;1313;-71
2023/10/27 01:27:15;;;;;;;8.98;3.03;;;;;;;;;;486037;28;1032;-71
2023/10/27 01:27:30;;;;;;;8.20;3.00;;;;;;;;;;486463;28;988;-71
2023/10/27 01:27:46;;;;;;;6.95;2.75;;;;;;;;;;486442;28;949;-71
2023/10/27 01:28:02;;;;;;;6.47;2.47;;;;;;;;;;487001;28;1026;-71
2023/10/27 01:28:18;;;;;;;7.70;2.42;;;;;;;;;;488673;28;1067;-71
2023/10/27 01:28:33;;;;;;;7.63;2.67;;;;;;;;;;486536;28;1187;-71
2023/10/27 01:28:49;;;;;;;6.15;2.60;;;;;;;;;;487910;28;957;-71
2023/10/27 01:29:04;;;;;;;5.57;2.37;;;;;;;;;;488482;28;1072;-71
2023/10/27 01:29:22;;;;;;;5.55;2.40;;;;;;;;;;489324;28;1004;-71
2023/10/27 01:29:38;;;;;;;7.60;2.55;;;;;;;;;;488503;28;2358;-71
2023/10/27 01:29:53;;;;;;;7.07;2.67;;;;;;;;;;488081;28;1234;-71
2023/10/27 01:30:09;;;;;;;6.65;2.70;;;;;;;;;;488879;28;965;-71
2023/10/27 01:30:24;;;;;;;7.25;2.70;;;;;;;;;;487878;28;2310;-71
2023/10/27 01:30:40;;;;;;;7.20;2.70;;;;;;;;;;486261;28;1297;-71
2023/10/27 01:30:56;;;;;;;9.53;2.83;;;;;;;;;;486386;28;1193;-71
2023/10/27 01:31:12;;;;;;;10.77;3.03;;;;;;;;;;486815;28;1197;-71
2023/10/27 01:31:27;;;;;;;8.65;2.90;;;;;;;;;;485762;28;1195;-71
2023/10/27 01:31:43;;;;;;;7.70;2.97;;;;;;;;;;484855;28;1027;-71
2023/10/27 01:31:58;;;;;;;7.87;3.10;;;;;;;;;;485388;28;967;-71
2023/10/27 01:32:14;;;;;;;7.85;3.00;;;;;;;;;;485503;28;1211;-71
2023/10/27 01:32:29;;;;;;;7.40;2.90;;;;;;;;;;485997;28;906;-71
2023/10/27 01:32:45;;;;;;;8.10;2.90;;;;;;;;;;487987;28;1451;-71
2023/10/27 01:33:01;;;;;;;9.27;2.90;;;;;;;;;;490148;28;1073;-71
2023/10/27 01:33:16;;;;;;;8.15;2.80;;;;;;;;;;489738;28;1175;-71
2023/10/27 01:33:32;;;;;;;7.93;2.70;;;;;;;;;;490454;28;1068;-71
2023/10/27 01:33:48;;;;;;;7.90;2.75;;;;;;;;;;487821;28;1253;-71
2023/10/27 01:34:03;;;;;;;7.47;2.67;;;;;;;;;;488728;28;1204;-71
2023/10/27 01:34:19;;;;;;;7.40;2.70;;;;;;;;;;488383;28;1638;-71
2023/10/27 01:34:34;;;;;;;7.88;2.90;;;;;;;;;;488837;28;1025;-71
2023/10/27 01:34:50;;;;;;;7.37;2.87;;;;;;;;;;486725;28;1083;-71
2023/10/27 01:35:07;;;;;;;7.30;2.72;;;;;;;;;;488554;28;932;-71
2023/10/27 01:35:22;;;;;;;8.55;2.90;;;;;;;;;;488844;28;1095;-71
2023/10/27 01:35:38;;;;;;;10.13;3.00;;;;;;;;;;488319;28;1101;-71
2023/10/27 01:35:54;;;;;;;8.63;2.90;;;;;;;;;;486037;28;1044;-71
2023/10/27 01:36:10;;;;;;;6.70;2.75;;;;;;;;;;488470;28;1118;-71
2023/10/27 01:36:25;;;;;;;6.63;2.70;;;;;;;;;;488529;28;1081;-71
2023/10/27 01:36:40;;;;;;;6.70;2.70;;;;;;;;;;487862;28;1254;-71